createdAt,value
2018-06-27T00:01:07.413Z,15.23
2018-06-27T00:03:34.691Z,14.93
2018-06-27T00:06:01.985Z,16.00
2018-06-27T00:08:29.276Z,15.97
2018-06-27T00:10:56.664Z,14.80
2018-06-27T00:13:23.959Z,14.37
2018-06-27T00:15:51.250Z,13.67
2018-06-27T00:18:18.535Z,13.77
2018-06-27T00:20:45.867Z,15.23
2018-06-27T00:23:13.154Z,14.27
2018-06-27T00:25:40.464Z,16.33
2018-06-27T00:28:07.746Z,15.03
2018-06-27T00:30:35.055Z,14.07
2018-06-27T00:33:02.335Z,14.77
2018-06-27T00:35:29.641Z,13.57
2018-06-27T00:37:56.965Z,14.47
2018-06-27T00:40:24.279Z,15.60
2018-06-27T00:42:51.561Z,15.60
2018-06-27T00:45:18.872Z,15.50
2018-06-27T00:47:46.149Z,16.00
2018-06-27T00:50:13.448Z,14.83
2018-06-27T00:52:40.752Z,15.13
2018-06-27T00:55:08.052Z,15.33
2018-06-27T00:57:35.350Z,16.07
2018-06-27T01:00:02.669Z,16.67
2018-06-27T01:02:29.971Z,18.90
2018-06-27T01:04:57.277Z,18.70
2018-06-27T01:07:24.543Z,19.33
2018-06-27T01:09:51.820Z,18.73
2018-06-27T01:12:19.121Z,19.73
2018-06-27T01:14:46.399Z,20.00
2018-06-27T01:17:13.680Z,20.70
2018-06-27T01:19:40.974Z,22.10
2018-06-27T01:22:08.276Z,19.20
2018-06-27T01:24:35.547Z,20.20
2018-06-27T01:27:02.903Z,19.33
2018-06-27T01:29:30.171Z,19.90
2018-06-27T01:31:57.455Z,20.93
2018-06-27T01:34:24.760Z,21.47
2018-06-27T01:36:52.039Z,20.33
2018-06-27T01:39:19.305Z,20.00
2018-06-27T01:41:46.985Z,19.07
2018-06-27T01:44:15.855Z,20.33
2018-06-27T01:46:43.496Z,18.83
2018-06-27T01:49:11.985Z,20.20
2018-06-27T01:51:40.688Z,21.27
2018-06-27T01:54:09.002Z,20.70
2018-06-27T01:56:36.644Z,20.00
2018-06-27T01:59:05.629Z,20.03
2018-06-27T02:01:33.387Z,20.53
2018-06-27T02:04:01.394Z,18.43
2018-06-27T02:06:29.104Z,18.53
2018-06-27T02:08:56.573Z,18.23
2018-06-27T02:11:24.867Z,17.53
2018-06-27T02:13:53.043Z,20.93
2018-06-27T02:16:21.548Z,20.50
2018-06-27T02:18:49.878Z,19.00
2018-06-27T02:21:18.085Z,19.37
2018-06-27T02:23:46.572Z,17.07
2018-06-27T02:26:14.807Z,16.97
2018-06-27T02:28:42.988Z,15.43
2018-06-27T02:31:11.158Z,14.77
2018-06-27T02:33:39.461Z,16.03
2018-06-27T02:36:07.426Z,15.80
2018-06-27T02:38:34.805Z,14.97
2018-06-27T02:41:03.578Z,15.47
2018-06-27T02:43:31.488Z,17.90
2018-06-27T02:45:59.465Z,17.17
2018-06-27T02:48:27.752Z,16.70
2018-06-27T02:50:55.706Z,16.23
2018-06-27T02:53:23.436Z,15.40
2018-06-27T02:55:50.842Z,14.43
2018-06-27T02:58:18.234Z,14.63
2018-06-27T03:00:46.316Z,14.87
2018-06-27T03:03:14.049Z,15.37
2018-06-27T03:05:41.406Z,14.60
2018-06-27T03:08:08.949Z,13.87
2018-06-27T03:10:37.362Z,13.17
2018-06-27T03:13:04.776Z,12.93
2018-06-27T03:15:33.186Z,14.03
2018-06-27T03:18:00.960Z,14.60
2018-06-27T03:20:28.629Z,13.13
2018-06-27T03:22:56.763Z,14.70
2018-06-27T03:25:24.858Z,13.10
2018-06-27T03:27:52.597Z,14.03
2018-06-27T03:30:19.864Z,15.53
2018-06-27T03:32:47.329Z,16.07
2018-06-27T03:35:15.085Z,15.97
2018-06-27T03:37:42.788Z,16.77
2018-06-27T03:40:11.736Z,17.23
2018-06-27T03:42:39.208Z,17.60
2018-06-27T03:45:07.512Z,16.47
2018-06-27T03:47:35.616Z,16.63
2018-06-27T03:50:03.501Z,16.40
2018-06-27T03:52:31.149Z,15.87
2018-06-27T03:54:59.968Z,14.57
2018-06-27T03:57:30.146Z,15.37
2018-06-27T03:59:57.986Z,15.30
2018-06-27T04:02:26.801Z,15.50
2018-06-27T04:04:54.515Z,15.97
2018-06-27T04:07:22.199Z,15.10
2018-06-27T04:09:49.889Z,13.90
2018-06-27T04:12:17.563Z,14.70
2018-06-27T04:14:45.309Z,15.33
2018-06-27T04:17:13.646Z,14.93
2018-06-27T04:19:41.785Z,14.70
2018-06-27T04:22:09.327Z,16.13
2018-06-27T04:24:36.715Z,16.70
2018-06-27T04:27:04.648Z,15.50
2018-06-27T04:29:33.585Z,16.60
2018-06-27T04:32:01.848Z,17.10
2018-06-27T04:34:29.540Z,16.77
2018-06-27T04:36:57.692Z,16.53
2018-06-27T04:39:25.867Z,15.77
2018-06-27T04:41:53.252Z,14.10
2018-06-27T04:44:21.234Z,14.60
2018-06-27T04:46:48.913Z,14.83
2018-06-27T04:49:18.306Z,14.40
2018-06-27T04:51:45.808Z,14.40
2018-06-27T04:54:13.415Z,14.47
2018-06-27T04:56:41.172Z,15.33
2018-06-27T04:59:10.240Z,15.43
2018-06-27T05:01:38.763Z,16.67
2018-06-27T05:04:06.718Z,16.13
2018-06-27T05:06:34.915Z,16.90
2018-06-27T05:09:03.360Z,16.37
2018-06-27T05:11:31.310Z,17.10
2018-06-27T05:13:58.900Z,18.47
2018-06-27T05:16:27.067Z,18.00
2018-06-27T05:18:54.689Z,17.33
2018-06-27T05:21:22.216Z,18.20
2018-06-27T05:23:49.717Z,18.83
2018-06-27T05:26:17.512Z,18.07
2018-06-27T05:28:45.912Z,17.57
2018-06-27T05:31:13.183Z,18.47
2018-06-27T05:33:40.569Z,19.20
2018-06-27T05:36:08.122Z,21.00
2018-06-27T05:38:35.610Z,21.30
2018-06-27T05:41:03.986Z,20.47
2018-06-27T05:43:31.944Z,23.03
2018-06-27T05:46:00.402Z,20.50
2018-06-27T05:48:28.919Z,21.30
2018-06-27T05:50:56.193Z,20.13
2018-06-27T05:53:24.054Z,20.33
2018-06-27T05:55:51.565Z,21.00
2018-06-27T05:58:19.807Z,21.27
2018-06-27T06:00:48.800Z,20.37
2018-06-27T06:03:16.624Z,19.97
2018-06-27T06:05:44.506Z,21.87
2018-06-27T06:08:12.716Z,22.17
2018-06-27T06:10:40.868Z,22.77
2018-06-27T06:13:09.309Z,21.63
2018-06-27T06:15:37.028Z,20.90
2018-06-27T06:18:05.004Z,21.53
2018-06-27T06:20:32.927Z,21.80
2018-06-27T06:23:00.476Z,22.70
2018-06-27T06:25:28.316Z,23.33
2018-06-27T06:27:56.831Z,22.90
2018-06-27T06:30:24.499Z,23.00
2018-06-27T06:32:52.308Z,21.37
2018-06-27T06:35:24.393Z,22.13
2018-06-27T06:37:53.667Z,21.40
2018-06-27T06:40:21.850Z,21.87
2018-06-27T06:42:50.528Z,21.07
2018-06-27T06:45:18.251Z,22.07
2018-06-27T06:47:46.177Z,22.27
2018-06-27T06:50:13.900Z,22.97
2018-06-27T06:52:42.472Z,23.80
2018-06-27T06:55:09.981Z,22.17
2018-06-27T06:57:37.481Z,22.50
2018-06-27T07:00:05.203Z,22.90
2018-06-27T07:02:33.056Z,20.60
2018-06-27T07:05:01.724Z,21.73
2018-06-27T07:07:29.729Z,21.33
2018-06-27T07:09:58.137Z,21.90
2018-06-27T07:12:25.592Z,21.93
2018-06-27T07:14:53.091Z,22.00
2018-06-27T07:17:20.452Z,20.77
2018-06-27T07:19:47.972Z,21.83
2018-06-27T07:22:15.823Z,21.77
2018-06-27T07:24:43.452Z,20.43
2018-06-27T07:27:11.128Z,20.77
2018-06-27T07:29:39.141Z,19.97
2018-06-27T07:32:10.804Z,18.60
2018-06-27T07:34:39.584Z,18.23
2018-06-27T07:37:06.868Z,19.03
2018-06-27T07:39:34.558Z,19.50
2018-06-27T07:42:10.296Z,19.87
2018-06-27T07:44:38.883Z,20.13
2018-06-27T07:47:06.466Z,19.20
2018-06-27T07:49:35.813Z,18.60
2018-06-27T07:52:04.564Z,19.47
2018-06-27T07:54:39.850Z,19.17
2018-06-27T07:57:08.414Z,18.10
2018-06-27T07:59:37.800Z,16.17
2018-06-27T08:02:05.797Z,16.90
2018-06-27T08:04:34.965Z,17.57
2018-06-27T08:07:03.724Z,17.47
2018-06-27T08:09:31.450Z,14.83
2018-06-27T08:11:59.072Z,15.53
2018-06-27T08:14:26.476Z,15.23
2018-06-27T08:16:54.477Z,15.30
2018-06-27T08:19:21.981Z,15.57
2018-06-27T08:21:50.725Z,15.87
2018-06-27T08:24:18.697Z,13.27
2018-06-27T08:26:46.089Z,14.77
2018-06-27T08:29:14.629Z,14.00
2018-06-27T08:31:45.587Z,14.17
2018-06-27T08:34:13.322Z,14.53
2018-06-27T08:36:41.993Z,13.80
2018-06-27T08:39:10.505Z,14.40
2018-06-27T08:41:38.189Z,12.73
2018-06-27T08:44:06.743Z,13.10
2018-06-27T08:46:35.228Z,11.87
2018-06-27T08:49:02.884Z,12.07
2018-06-27T08:51:31.334Z,12.23
2018-06-27T08:53:59.198Z,12.50
2018-06-27T08:56:27.941Z,11.83
2018-06-27T08:58:59.450Z,11.97
2018-06-27T09:01:26.849Z,11.33
2018-06-27T09:03:54.288Z,12.13
2018-06-27T09:06:21.681Z,11.97
2018-06-27T09:08:49.400Z,8.73
2018-06-27T09:11:17.660Z,9.50
2018-06-27T09:13:45.413Z,9.20
2018-06-27T09:16:13.595Z,11.20
2018-06-27T09:18:42.422Z,8.80
2018-06-27T09:21:09.840Z,8.70
2018-06-27T09:23:37.683Z,8.53
2018-06-27T09:26:05.278Z,9.13
2018-06-27T09:28:32.925Z,9.60
2018-06-27T09:31:00.600Z,9.37
2018-06-27T09:33:28.880Z,8.27
2018-06-27T09:35:58.748Z,8.77
2018-06-27T09:38:26.735Z,8.00
2018-06-27T09:40:54.468Z,8.80
2018-06-27T09:43:22.938Z,8.90
2018-06-27T09:45:50.852Z,8.00
2018-06-27T09:48:18.264Z,7.57
2018-06-27T09:50:47.560Z,8.50
2018-06-27T09:53:15.590Z,8.20
2018-06-27T09:55:44.471Z,7.63
2018-06-27T09:58:12.133Z,6.50
2018-06-27T10:00:40.664Z,6.23
2018-06-27T10:03:09.330Z,6.50
2018-06-27T10:05:37.696Z,6.07
2018-06-27T10:08:05.524Z,5.90
2018-06-27T10:10:33.753Z,6.13
2018-06-27T10:13:02.925Z,4.70
2018-06-27T10:15:32.222Z,3.70
2018-06-27T10:18:00.160Z,4.30
2018-06-27T10:20:28.280Z,4.17
2018-06-27T10:22:56.572Z,4.10
2018-06-27T10:25:24.333Z,4.07
2018-06-27T10:27:52.420Z,4.33
2018-06-27T10:30:20.110Z,5.47
2018-06-27T10:32:47.732Z,6.50
2018-06-27T10:35:16.073Z,9.40
2018-06-27T10:37:43.680Z,8.23
2018-06-27T10:40:12.656Z,7.17
2018-06-27T10:42:40.876Z,7.67
2018-06-27T10:45:14.963Z,4.77
2018-06-27T10:47:42.753Z,5.27
2018-06-27T10:50:10.125Z,4.67
2018-06-27T10:52:38.072Z,4.50
2018-06-27T10:55:25.801Z,3.77
2018-06-27T10:57:53.337Z,3.80
2018-06-27T11:00:22.929Z,4.73
2018-06-27T11:02:51.897Z,4.10
2018-06-27T11:05:20.052Z,3.70
2018-06-27T11:07:48.665Z,3.47
2018-06-27T11:10:16.046Z,3.60
2018-06-27T11:12:43.824Z,3.97
2018-06-27T11:15:11.570Z,4.17
2018-06-27T11:17:39.662Z,3.63
2018-06-27T11:20:08.205Z,3.67
2018-06-27T11:22:36.060Z,3.80
2018-06-27T11:25:04.273Z,3.37
2018-06-27T11:27:31.736Z,3.70
2018-06-27T11:29:59.556Z,3.60
2018-06-27T11:32:27.796Z,4.10
2018-06-27T11:34:55.644Z,4.10
2018-06-27T11:37:23.350Z,3.87
2018-06-27T11:39:50.833Z,4.77
2018-06-27T11:42:18.182Z,4.73
2018-06-27T11:44:45.841Z,4.20
2018-06-27T11:47:14.019Z,5.00
2018-06-27T11:49:42.125Z,4.50
2018-06-27T11:52:10.078Z,4.03
2018-06-27T11:54:38.153Z,4.40
2018-06-27T11:57:05.620Z,4.60
2018-06-27T11:59:34.618Z,4.10
2018-06-27T12:02:03.473Z,4.33
2018-06-27T12:04:31.409Z,4.03
2018-06-27T12:06:59.457Z,4.40
2018-06-27T12:09:28.988Z,4.00
2018-06-27T12:11:56.480Z,3.80
2018-06-27T12:14:24.245Z,4.40
2018-06-27T12:16:51.980Z,3.90
2018-06-27T12:19:20.428Z,3.40
2018-06-27T12:21:48.596Z,3.50
2018-06-27T12:24:16.198Z,3.67
2018-06-27T12:26:44.611Z,3.70
2018-06-27T12:29:12.083Z,3.90
2018-06-27T12:31:39.745Z,3.43
2018-06-27T12:34:08.036Z,3.77
2018-06-27T12:36:36.069Z,4.03
2018-06-27T12:39:19.410Z,3.37
2018-06-27T12:41:47.014Z,4.00
2018-06-27T12:44:14.853Z,3.80
2018-06-27T12:46:43.751Z,3.70
2018-06-27T12:49:11.584Z,4.10
2018-06-27T12:51:40.349Z,3.60
2018-06-27T12:54:08.843Z,3.10
2018-06-27T12:56:36.319Z,3.07
2018-06-27T12:59:03.965Z,2.90
2018-06-27T13:01:31.553Z,2.83
2018-06-27T13:03:59.473Z,3.22
2018-06-27T13:06:27.161Z,3.22
2018-06-27T13:08:54.772Z,3.12
2018-06-27T13:11:22.893Z,3.00
2018-06-27T13:13:50.732Z,3.20
2018-06-27T13:16:18.368Z,3.10
2018-06-27T13:18:46.620Z,3.02
2018-06-27T13:21:14.824Z,3.30
2018-06-27T13:23:42.116Z,3.05
2018-06-27T13:26:10.078Z,3.15
2018-06-27T13:28:37.812Z,3.12
2018-06-27T13:31:06.226Z,2.75
2018-06-27T13:33:33.864Z,2.90
2018-06-27T13:36:01.917Z,2.45
2018-06-27T13:38:29.453Z,2.67
2018-06-27T13:40:57.080Z,2.37
2018-06-27T13:43:24.862Z,2.62
2018-06-27T13:45:53.272Z,2.35
2018-06-27T13:48:21.419Z,2.60
2018-06-27T13:50:48.829Z,2.42
2018-06-27T13:53:18.978Z,2.52
2018-06-27T13:55:47.396Z,2.30
2018-06-27T13:58:15.701Z,2.40
2018-06-27T14:00:43.745Z,2.55
2018-06-27T14:03:11.980Z,2.37
2018-06-27T14:05:39.863Z,2.52
2018-06-27T14:08:11.451Z,2.37
2018-06-27T14:10:39.713Z,2.15
2018-06-27T14:13:08.665Z,2.40
2018-06-27T14:15:36.697Z,2.35
2018-06-27T14:18:04.613Z,2.30
2018-06-27T14:20:32.997Z,2.00
2018-06-27T14:23:00.881Z,2.08
2018-06-27T14:25:28.281Z,2.05
2018-06-27T14:27:55.929Z,2.30
2018-06-27T14:30:23.704Z,2.15
2018-06-27T14:32:52.144Z,2.20
2018-06-27T14:35:20.294Z,2.40
2018-06-27T14:37:48.230Z,2.10
2018-06-27T14:40:16.920Z,2.40
2018-06-27T14:42:44.420Z,2.77
2018-06-27T14:45:13.377Z,2.40
2018-06-27T14:47:42.337Z,2.45
2018-06-27T14:50:10.861Z,2.42
2018-06-27T14:52:38.628Z,2.60
2018-06-27T14:55:08.569Z,2.58
2018-06-27T14:57:36.917Z,2.70
2018-06-27T15:00:05.469Z,3.00
2018-06-27T15:02:32.995Z,2.70
2018-06-27T15:05:00.525Z,2.30
2018-06-27T15:07:28.409Z,3.00
2018-06-27T15:09:56.360Z,2.65
2018-06-27T15:12:24.529Z,3.00
2018-06-27T15:14:51.944Z,2.70
2018-06-27T15:17:19.415Z,3.12
2018-06-27T15:19:47.477Z,2.90
2018-06-27T15:22:15.618Z,2.83
2018-06-27T15:24:44.549Z,2.72
2018-06-27T15:27:12.659Z,2.70
2018-06-27T15:29:41.621Z,2.80
2018-06-27T15:32:10.619Z,2.72
2018-06-27T15:34:38.629Z,2.58
2018-06-27T15:37:10.133Z,2.83
2018-06-27T15:39:38.618Z,3.00
2018-06-27T15:42:07.458Z,2.80
2018-06-27T15:44:35.958Z,3.00
2018-06-27T15:47:03.301Z,2.98
2018-06-27T15:49:32.261Z,2.77
2018-06-27T15:51:59.768Z,2.50
2018-06-27T15:54:27.852Z,3.17
2018-06-27T15:56:56.680Z,3.00
2018-06-27T15:59:24.185Z,3.02
2018-06-27T16:01:52.764Z,2.95
2018-06-27T16:04:20.888Z,2.85
2018-06-27T16:06:50.209Z,2.90
2018-06-27T16:09:18.457Z,2.72
2018-06-27T16:11:46.329Z,2.55
2018-06-27T16:14:17.441Z,2.50
2018-06-27T16:16:45.464Z,2.80
2018-06-27T16:19:12.984Z,2.60
2018-06-27T16:21:41.011Z,2.87
2018-06-27T16:24:08.703Z,2.77
2018-06-27T16:26:38.164Z,2.60
2018-06-27T16:29:05.589Z,2.42
2018-06-27T16:31:38.153Z,2.20
2018-06-27T16:34:06.482Z,2.60
2018-06-27T16:36:33.932Z,2.42
2018-06-27T16:39:01.967Z,2.40
2018-06-27T16:41:30.108Z,2.27
2018-06-27T16:43:57.388Z,2.40
2018-06-27T16:46:25.672Z,2.70
2018-06-27T16:48:54.106Z,3.30
2018-06-27T16:51:22.687Z,8.05
2018-06-27T16:53:50.388Z,2.50
2018-06-27T16:56:17.913Z,2.70
2018-06-27T16:58:46.637Z,2.53
2018-06-27T17:01:14.236Z,2.60
2018-06-27T17:03:42.777Z,2.53
2018-06-27T17:06:11.180Z,2.67
2018-06-27T17:08:39.214Z,2.50
2018-06-27T17:11:06.541Z,2.57
2018-06-27T17:13:33.814Z,2.50
2018-06-27T17:16:01.177Z,2.33
2018-06-27T17:18:28.497Z,5.20
2018-06-27T17:20:55.781Z,8.97
2018-06-27T17:23:23.101Z,7.63
2018-06-27T17:25:50.430Z,14.97
2018-06-27T17:28:17.716Z,24.37
2018-06-27T17:30:45.061Z,15.40
2018-06-27T17:33:12.368Z,5.03
2018-06-27T17:35:39.657Z,2.80
2018-06-27T17:38:07.018Z,2.90
2018-06-27T17:40:34.329Z,2.80
2018-06-27T17:43:02.099Z,2.57
2018-06-27T17:45:30.544Z,2.87
2018-06-27T17:47:57.825Z,3.00
2018-06-27T17:50:25.149Z,2.70
2018-06-27T17:52:52.439Z,3.23
2018-06-27T17:55:19.793Z,2.20
2018-06-27T17:57:47.112Z,2.73
2018-06-27T18:00:15.469Z,3.10
2018-06-27T18:02:44.217Z,3.50
2018-06-27T18:05:11.520Z,2.83
2018-06-27T18:07:38.821Z,2.67
2018-06-27T18:10:06.124Z,2.30
2018-06-27T18:12:34.271Z,2.80
2018-06-27T18:15:01.557Z,3.10
2018-06-27T18:17:28.841Z,2.60
2018-06-27T18:19:56.153Z,2.70
2018-06-27T18:22:23.449Z,2.70
2018-06-27T18:24:50.737Z,2.42
2018-06-27T18:27:21.284Z,2.80
2018-06-27T18:29:48.582Z,2.67
2018-06-27T18:32:15.900Z,2.63
2018-06-27T18:34:43.168Z,2.80
2018-06-27T18:37:10.464Z,3.10
2018-06-27T18:39:37.725Z,3.00
2018-06-27T18:42:05.023Z,3.33
2018-06-27T18:44:32.321Z,3.43
2018-06-27T18:46:59.647Z,3.00
2018-06-27T18:49:26.973Z,2.97
2018-06-27T18:51:54.271Z,3.00
2018-06-27T18:54:21.538Z,2.90
2018-06-27T18:56:48.920Z,3.50
2018-06-27T18:59:16.244Z,3.07
2018-06-27T19:01:43.567Z,3.27
2018-06-27T19:04:10.880Z,2.90
2018-06-27T19:06:38.228Z,3.00
2018-06-27T19:09:07.463Z,2.87
2018-06-27T19:11:34.784Z,3.40
2018-06-27T19:14:02.077Z,3.17
2018-06-27T19:16:30.216Z,2.73
2018-06-27T19:18:57.553Z,2.90
2018-06-27T19:21:24.858Z,2.90
2018-06-27T19:23:52.128Z,2.83
2018-06-27T19:26:19.406Z,2.57
2018-06-27T19:28:46.672Z,2.60
2018-06-27T19:31:13.984Z,2.67
2018-06-27T19:33:41.294Z,2.80
2018-06-27T19:36:08.521Z,2.87
2018-06-27T19:38:35.854Z,2.93
2018-06-27T19:41:03.355Z,2.40
2018-06-27T19:43:30.614Z,2.77
2018-06-27T19:45:57.962Z,2.60
2018-06-27T19:48:25.264Z,3.03
2018-06-27T19:50:52.886Z,3.13
2018-06-27T19:53:20.235Z,2.73
2018-06-27T19:55:47.597Z,2.83
2018-06-27T19:58:15.018Z,2.50
2018-06-27T20:00:42.379Z,2.83
2018-06-27T20:03:10.093Z,2.47
2018-06-27T20:05:37.623Z,2.63
2018-06-27T20:08:05.089Z,2.70
2018-06-27T20:10:32.424Z,2.67
2018-06-27T20:12:59.707Z,2.93
2018-06-27T20:15:27.019Z,3.00
2018-06-27T20:17:54.357Z,2.93
2018-06-27T20:20:21.648Z,2.60
2018-06-27T20:22:48.946Z,2.90
2018-06-27T20:25:16.256Z,2.20
2018-06-27T20:27:43.552Z,2.57
2018-06-27T20:30:10.817Z,2.60
2018-06-27T20:32:38.157Z,2.80
2018-06-27T20:35:05.484Z,2.73
2018-06-27T20:37:33.157Z,2.77
2018-06-27T20:40:04.541Z,2.50
2018-06-27T20:42:31.829Z,2.73
2018-06-27T20:44:59.152Z,2.77
2018-06-27T20:47:32.919Z,2.80
2018-06-27T20:50:00.226Z,2.80
2018-06-27T20:52:27.533Z,2.80
2018-06-27T20:54:54.828Z,2.90
2018-06-27T20:57:23.015Z,2.70
2018-06-27T20:59:51.552Z,2.83
2018-06-27T21:02:18.860Z,2.97
2018-06-27T21:04:46.151Z,3.03
2018-06-27T21:07:13.468Z,2.50
2018-06-27T21:09:40.777Z,2.83
2018-06-27T21:12:08.136Z,2.93
2018-06-27T21:14:35.476Z,2.53
2018-06-27T21:17:02.750Z,2.80
2018-06-27T21:19:30.051Z,2.67
2018-06-27T21:21:57.329Z,2.60
2018-06-27T21:24:24.672Z,2.80
2018-06-27T21:26:51.932Z,2.80
2018-06-27T21:29:19.228Z,3.03
2018-06-27T21:31:46.528Z,2.90
2018-06-27T21:34:13.829Z,3.03
2018-06-27T21:36:41.104Z,2.93
2018-06-27T21:39:08.583Z,2.73
2018-06-27T21:41:35.890Z,3.00
2018-06-27T21:44:03.298Z,3.00
2018-06-27T21:46:30.578Z,2.80
2018-06-27T21:48:57.870Z,3.00
2018-06-27T21:51:25.141Z,3.10
2018-06-27T21:53:52.448Z,3.20
2018-06-27T21:56:19.792Z,2.47
2018-06-27T21:58:47.101Z,2.80
2018-06-27T22:01:14.360Z,2.60
2018-06-27T22:03:41.723Z,3.10
2018-06-27T22:06:09.540Z,3.20
2018-06-27T22:08:36.862Z,2.63
2018-06-27T22:11:04.140Z,2.90
2018-06-27T22:13:31.431Z,2.80
2018-06-27T22:15:58.692Z,2.63
2018-06-27T22:18:25.970Z,2.97
2018-06-27T22:20:53.237Z,2.90
2018-06-27T22:23:20.908Z,2.37
2018-06-27T22:25:48.165Z,2.70
2018-06-27T22:28:15.447Z,2.70
2018-06-27T22:30:42.760Z,3.00
2018-06-27T22:33:10.049Z,2.70
2018-06-27T22:35:37.324Z,2.73
2018-06-27T22:38:04.824Z,3.33
2018-06-27T22:40:32.095Z,2.87
2018-06-27T22:42:59.812Z,2.90
2018-06-27T22:45:27.129Z,2.60
2018-06-27T22:47:54.408Z,3.10
2018-06-27T22:50:21.712Z,2.90
2018-06-27T22:52:48.994Z,2.90
2018-06-27T22:55:16.317Z,2.97
2018-06-27T22:57:43.613Z,2.60
2018-06-27T23:00:11.080Z,2.77
2018-06-27T23:02:50.266Z,3.43
2018-06-27T23:05:17.582Z,3.40
2018-06-27T23:07:44.852Z,3.00
2018-06-27T23:10:12.144Z,3.30
2018-06-27T23:12:39.439Z,3.20
2018-06-27T23:15:06.744Z,2.90
2018-06-27T23:17:34.020Z,2.90
2018-06-27T23:20:01.327Z,3.00
2018-06-27T23:22:34.152Z,3.03
2018-06-27T23:25:01.433Z,2.80
2018-06-27T23:27:28.995Z,2.87
2018-06-27T23:29:56.283Z,3.13
2018-06-27T23:32:23.596Z,3.27
2018-06-27T23:34:50.900Z,3.50
2018-06-27T23:37:18.217Z,3.00
2018-06-27T23:39:45.508Z,3.20
2018-06-27T23:42:12.785Z,3.20
2018-06-27T23:44:40.057Z,3.33
2018-06-27T23:47:07.385Z,3.57
2018-06-27T23:49:34.716Z,3.20
2018-06-27T23:52:01.984Z,3.40
2018-06-27T23:54:29.281Z,3.60
2018-06-27T23:56:56.597Z,3.60
2018-06-27T23:59:23.874Z,3.40
